createdAt,value
2023-03-05T00:01:33.696Z,75.92
2023-03-05T00:04:03.797Z,75.75
2023-03-05T00:06:32.997Z,76.14
2023-03-05T00:09:01.709Z,76.19
2023-03-05T00:11:30.789Z,75.90
2023-03-05T00:14:00.074Z,75.99
2023-03-05T00:16:29.573Z,75.83
2023-03-05T00:19:00.917Z,75.87
2023-03-05T00:21:35.027Z,75.64
2023-03-05T00:24:05.964Z,75.42
2023-03-05T00:26:36.799Z,75.16
2023-03-05T00:29:05.890Z,74.99
2023-03-05T00:31:36.011Z,74.74
2023-03-05T00:34:06.869Z,74.71
2023-03-05T00:36:36.862Z,75.07
2023-03-05T00:39:05.033Z,74.97
2023-03-05T00:41:33.838Z,74.85
2023-03-05T00:44:02.197Z,74.50
2023-03-05T00:46:30.469Z,74.41
2023-03-05T00:48:58.644Z,74.11
2023-03-05T00:51:27.124Z,73.78
2023-03-05T00:53:55.825Z,73.72
2023-03-05T00:56:24.509Z,73.84
2023-03-05T00:58:53.588Z,73.99
2023-03-05T01:01:21.918Z,73.89
2023-03-05T01:03:50.538Z,73.65
2023-03-05T01:06:18.931Z,74.13
2023-03-05T01:08:47.186Z,73.73
2023-03-05T01:11:15.454Z,74.01
2023-03-05T01:13:43.828Z,74.22
2023-03-05T01:16:12.027Z,73.97
2023-03-05T01:18:42.017Z,73.68
2023-03-05T01:21:10.900Z,73.41
2023-03-05T01:23:39.072Z,73.15
2023-03-05T01:26:08.745Z,73.18
2023-03-05T01:28:38.578Z,72.88
2023-03-05T01:31:08.922Z,72.78
2023-03-05T01:33:37.695Z,72.74
2023-03-05T01:36:13.549Z,72.84
2023-03-05T01:38:43.308Z,72.69
2023-03-05T01:41:12.651Z,72.81
2023-03-05T01:43:41.657Z,72.79
2023-03-05T01:46:30.099Z,72.78
2023-03-05T01:49:01.362Z,72.55
2023-03-05T01:51:51.659Z,72.69
2023-03-05T01:54:21.750Z,72.85
2023-03-05T01:56:51.048Z,72.85
2023-03-05T01:59:20.041Z,73.19
2023-03-05T02:01:51.490Z,73.09
2023-03-05T02:04:22.124Z,73.11
2023-03-05T02:06:50.698Z,73.22
2023-03-05T02:09:23.583Z,73.31
2023-03-05T02:11:52.063Z,73.36
2023-03-05T02:14:21.269Z,73.45
2023-03-05T02:16:49.478Z,73.53
2023-03-05T02:19:17.914Z,73.77
2023-03-05T02:21:48.369Z,73.82
2023-03-05T02:24:20.092Z,73.91
2023-03-05T02:26:48.265Z,74.24
2023-03-05T02:29:19.511Z,74.49
2023-03-05T02:31:47.811Z,74.55
2023-03-05T02:34:16.171Z,74.65
2023-03-05T02:36:44.463Z,74.80
2023-03-05T02:39:13.119Z,74.89
2023-03-05T02:41:41.293Z,74.95
2023-03-05T02:44:09.873Z,75.08
2023-03-05T02:46:38.252Z,75.17
2023-03-05T02:49:06.529Z,75.17
2023-03-05T02:51:34.906Z,75.31
2023-03-05T02:54:03.077Z,75.42
2023-03-05T02:56:31.966Z,75.45
2023-03-05T02:59:01.786Z,75.49
2023-03-05T03:01:30.729Z,75.57
2023-03-05T03:03:59.449Z,75.93
2023-03-05T03:06:27.533Z,76.01
2023-03-05T03:08:55.805Z,75.94
2023-03-05T03:11:23.967Z,75.95
2023-03-05T03:13:52.149Z,76.07
2023-03-05T03:16:20.366Z,76.21
2023-03-05T03:18:49.113Z,76.11
2023-03-05T03:21:20.062Z,76.24
2023-03-05T03:23:48.224Z,76.11
2023-03-05T03:26:16.897Z,76.15
2023-03-05T03:28:45.683Z,76.15
2023-03-05T03:31:13.776Z,76.09
2023-03-05T03:33:42.035Z,76.17
2023-03-05T03:36:10.906Z,76.22
2023-03-05T03:38:39.094Z,76.25
2023-03-05T03:41:08.184Z,76.38
2023-03-05T03:43:36.877Z,76.47
2023-03-05T03:46:07.322Z,76.45
2023-03-05T03:48:36.260Z,76.64
2023-03-05T03:51:06.524Z,76.51
2023-03-05T03:53:34.980Z,76.53
2023-03-05T03:56:03.667Z,76.45
2023-03-05T03:58:32.772Z,76.52
2023-03-05T04:01:00.940Z,76.40
2023-03-05T04:03:29.209Z,76.41
2023-03-05T04:05:57.387Z,76.26
2023-03-05T04:08:25.656Z,76.37
2023-03-05T04:10:53.832Z,76.22
2023-03-05T04:13:22.003Z,76.44
2023-03-05T04:15:50.685Z,76.46
2023-03-05T04:18:18.964Z,76.46
2023-03-05T04:20:47.232Z,76.42
2023-03-05T04:23:15.716Z,76.49
2023-03-05T04:25:44.194Z,76.64
2023-03-05T04:28:12.670Z,76.70
2023-03-05T04:30:40.847Z,76.78
2023-03-05T04:33:09.121Z,76.71
2023-03-05T04:35:37.725Z,77.11
2023-03-05T04:38:05.970Z,77.22
2023-03-05T04:40:34.552Z,77.41
2023-03-05T04:43:03.925Z,77.56
2023-03-05T04:45:32.431Z,77.61
2023-03-05T04:48:00.813Z,77.80
2023-03-05T04:50:28.991Z,77.98
2023-03-05T04:52:57.268Z,78.03
2023-03-05T04:55:25.424Z,78.15
2023-03-05T04:57:53.703Z,78.47
2023-03-05T05:00:23.183Z,78.78
2023-03-05T05:02:52.470Z,79.12
2023-03-05T05:05:24.786Z,79.30
2023-03-05T05:07:57.146Z,79.56
2023-03-05T05:10:26.666Z,79.71
2023-03-05T05:12:54.831Z,80.04
2023-03-05T05:15:23.120Z,80.18
2023-03-05T05:17:51.265Z,80.40
2023-03-05T05:20:20.238Z,80.47
2023-03-05T05:22:48.436Z,80.66
2023-03-05T05:25:16.707Z,81.00
2023-03-05T05:27:44.884Z,81.08
2023-03-05T05:30:13.562Z,81.10
2023-03-05T05:32:41.796Z,81.49
2023-03-05T05:35:10.716Z,81.59
2023-03-05T05:37:38.907Z,81.95
2023-03-05T05:40:08.520Z,82.23
2023-03-05T05:42:36.796Z,82.56
2023-03-05T05:45:06.094Z,82.86
2023-03-05T05:47:34.358Z,82.99
2023-03-05T05:50:02.530Z,83.23
2023-03-05T05:52:30.804Z,83.33
2023-03-05T05:54:58.857Z,83.79
2023-03-05T05:57:27.051Z,83.95
2023-03-05T05:59:55.214Z,84.06
2023-03-05T06:02:23.599Z,83.91
2023-03-05T06:04:52.075Z,83.98
2023-03-05T06:07:20.152Z,83.91
2023-03-05T06:09:48.929Z,84.01
2023-03-05T06:12:17.204Z,83.92
2023-03-05T06:14:45.385Z,83.94
2023-03-05T06:17:21.842Z,84.00
2023-03-05T06:19:55.536Z,83.99
2023-03-05T06:22:23.715Z,84.09
2023-03-05T06:24:51.903Z,83.94
2023-03-05T06:27:20.176Z,83.88
2023-03-05T06:29:48.308Z,83.36
2023-03-05T06:32:16.401Z,83.41
2023-03-05T06:34:44.686Z,83.56
2023-03-05T06:37:12.874Z,83.36
2023-03-05T06:39:41.027Z,83.52
2023-03-05T06:42:10.342Z,83.25
2023-03-05T06:44:40.522Z,83.07
2023-03-05T06:47:10.671Z,83.05
2023-03-05T06:49:39.651Z,82.79
2023-03-05T06:52:10.280Z,82.61
2023-03-05T06:54:38.351Z,82.41
2023-03-05T06:57:06.525Z,82.21
2023-03-05T06:59:34.697Z,81.93
2023-03-05T07:02:02.936Z,81.84
2023-03-05T07:04:31.360Z,81.65
2023-03-05T07:07:00.766Z,81.27
2023-03-05T07:09:29.329Z,81.22
2023-03-05T07:11:57.709Z,80.90
2023-03-05T07:14:25.997Z,80.66
2023-03-05T07:16:54.097Z,80.37
2023-03-05T07:19:22.327Z,80.09
2023-03-05T07:21:50.499Z,79.77
2023-03-05T07:24:18.568Z,79.81
2023-03-05T07:26:48.830Z,79.87
2023-03-05T07:29:17.167Z,79.49
2023-03-05T07:31:45.261Z,79.25
2023-03-05T07:34:13.415Z,78.89
2023-03-05T07:36:43.223Z,78.70
2023-03-05T07:39:12.822Z,78.59
2023-03-05T07:41:40.920Z,78.36
2023-03-05T07:44:10.204Z,78.27
2023-03-05T07:46:38.422Z,78.18
2023-03-05T07:49:06.640Z,77.82
2023-03-05T07:51:35.017Z,78.01
2023-03-05T07:54:03.395Z,77.66
2023-03-05T07:56:35.568Z,77.61
2023-03-05T07:59:09.057Z,77.88
2023-03-05T08:01:37.849Z,77.72
2023-03-05T08:04:07.484Z,77.73
2023-03-05T08:06:35.742Z,77.59
2023-03-05T08:09:04.110Z,77.77
2023-03-05T08:11:32.486Z,77.63
2023-03-05T08:14:01.174Z,77.64
2023-03-05T08:16:29.479Z,77.28
2023-03-05T08:18:58.849Z,77.59
2023-03-05T08:21:33.923Z,77.66
2023-03-05T08:24:04.709Z,77.93
2023-03-05T08:26:34.973Z,77.87
2023-03-05T08:29:03.627Z,77.82
2023-03-05T08:31:32.356Z,78.02
2023-03-05T08:34:02.003Z,78.02
2023-03-05T08:36:30.682Z,77.91
2023-03-05T08:38:59.884Z,78.02
2023-03-05T08:41:28.289Z,77.98
2023-03-05T08:43:56.640Z,78.24
2023-03-05T08:46:25.308Z,78.65
2023-03-05T08:48:53.912Z,78.95
2023-03-05T08:51:25.978Z,78.90
2023-03-05T08:53:55.978Z,79.09
2023-03-05T08:56:25.589Z,79.27
2023-03-05T08:58:53.775Z,79.49
2023-03-05T09:01:22.964Z,79.69
2023-03-05T09:03:51.450Z,79.95
2023-03-05T09:06:19.712Z,80.00
2023-03-05T09:08:47.882Z,80.29
2023-03-05T09:11:16.260Z,80.19
2023-03-05T09:13:44.549Z,80.18
2023-03-05T09:16:16.028Z,80.25
2023-03-05T09:18:44.904Z,80.29
2023-03-05T09:21:16.081Z,80.21
2023-03-05T09:23:45.221Z,79.96
2023-03-05T09:26:15.936Z,79.88
2023-03-05T09:28:44.115Z,79.32
2023-03-05T09:31:12.904Z,79.06
2023-03-05T09:33:41.688Z,79.37
2023-03-05T09:36:19.873Z,79.18
2023-03-05T09:38:48.490Z,79.18
2023-03-05T09:41:34.678Z,79.15
2023-03-05T09:44:18.508Z,78.91
2023-03-05T09:46:55.268Z,78.57
2023-03-05T09:49:44.345Z,78.03
2023-03-05T09:52:21.019Z,77.99
2023-03-05T09:54:58.506Z,78.23
2023-03-05T09:57:36.816Z,77.96
2023-03-05T10:00:34.811Z,77.87
2023-03-05T10:03:06.800Z,77.72
2023-03-05T10:05:59.911Z,77.24
2023-03-05T10:08:33.720Z,76.91
2023-03-05T10:11:03.624Z,76.34
2023-03-05T10:13:39.785Z,75.82
2023-03-05T10:16:23.276Z,75.76
2023-03-05T10:19:08.078Z,75.56
2023-03-05T10:22:03.277Z,75.34
2023-03-05T10:24:31.455Z,75.48
2023-03-05T10:27:14.701Z,75.06
2023-03-05T10:29:58.215Z,74.91
2023-03-05T10:33:03.964Z,74.80
2023-03-05T10:35:57.693Z,74.90
2023-03-05T10:39:00.117Z,75.52
2023-03-05T10:41:40.573Z,75.71
2023-03-05T10:44:15.910Z,76.31
2023-03-05T10:46:45.109Z,76.58
2023-03-05T10:49:29.973Z,76.14
2023-03-05T10:52:05.618Z,75.36
2023-03-05T10:54:36.027Z,74.37
2023-03-05T10:57:05.346Z,74.08
2023-03-05T10:59:33.527Z,73.43
2023-03-05T11:02:08.956Z,73.38
2023-03-05T11:04:39.499Z,73.20
2023-03-05T11:07:16.464Z,73.06
2023-03-05T11:10:04.229Z,73.18
2023-03-05T11:12:35.040Z,73.07
2023-03-05T11:15:09.252Z,73.17
2023-03-05T11:17:48.090Z,73.54
2023-03-05T11:20:29.042Z,73.87
2023-03-05T11:23:16.251Z,73.90
2023-03-05T11:26:13.713Z,74.59
2023-03-05T11:28:57.537Z,75.40
2023-03-05T11:31:31.553Z,75.74
2023-03-05T11:34:09.862Z,75.76
2023-03-05T11:36:40.498Z,75.72
2023-03-05T11:39:08.462Z,75.85
2023-03-05T11:41:40.637Z,75.82
2023-03-05T11:44:15.757Z,75.84
2023-03-05T11:46:47.551Z,76.05
2023-03-05T11:49:20.334Z,75.92
2023-03-05T11:52:00.560Z,75.84
2023-03-05T11:54:37.125Z,75.14
2023-03-05T11:57:06.531Z,75.13
2023-03-05T11:59:36.149Z,75.11
2023-03-05T12:02:14.671Z,74.38
2023-03-05T12:04:43.033Z,74.41
2023-03-05T12:07:14.172Z,74.43
2023-03-05T12:09:51.977Z,74.48
2023-03-05T12:13:05.379Z,74.29
2023-03-05T12:16:04.654Z,74.28
2023-03-05T12:18:39.033Z,73.63
2023-03-05T12:21:27.366Z,73.09
2023-03-05T12:24:01.904Z,72.82
2023-03-05T12:27:04.765Z,72.57
2023-03-05T12:29:33.181Z,72.08
2023-03-05T12:32:01.791Z,71.88
2023-03-05T12:34:42.928Z,71.76
2023-03-05T12:37:13.337Z,71.62
2023-03-05T12:39:49.685Z,71.89
2023-03-05T12:42:30.200Z,72.21
2023-03-05T12:45:37.974Z,72.14
2023-03-05T12:48:10.942Z,71.97
2023-03-05T12:50:39.632Z,71.75
2023-03-05T12:53:13.030Z,71.71
2023-03-05T12:55:58.605Z,71.60
2023-03-05T12:59:05.057Z,71.56
2023-03-05T13:01:43.557Z,71.10
2023-03-05T13:04:21.906Z,70.81
2023-03-05T13:07:04.703Z,71.10
2023-03-05T13:09:36.470Z,71.15
2023-03-05T13:12:06.717Z,70.97
2023-03-05T13:14:49.497Z,70.94
2023-03-05T13:17:31.801Z,71.02
2023-03-05T13:20:01.610Z,71.33
2023-03-05T13:22:31.318Z,71.37
2023-03-05T13:25:20.705Z,71.58
2023-03-05T13:27:48.859Z,71.85
2023-03-05T13:30:22.966Z,71.86
2023-03-05T13:32:52.791Z,71.96
2023-03-05T13:35:21.390Z,72.01
2023-03-05T13:37:49.942Z,72.02
2023-03-05T13:40:26.823Z,72.06
2023-03-05T13:42:55.894Z,72.05
2023-03-05T13:45:24.259Z,71.87
2023-03-05T13:48:00.970Z,72.01
2023-03-05T13:50:31.920Z,71.77
2023-03-05T13:53:30.695Z,71.73
2023-03-05T13:56:06.168Z,71.76
2023-03-05T13:58:53.987Z,71.45
2023-03-05T14:01:40.875Z,71.11
2023-03-05T14:04:20.139Z,71.41
2023-03-05T14:06:59.850Z,71.41
2023-03-05T14:09:30.822Z,71.26
2023-03-05T14:12:05.724Z,71.14
2023-03-05T14:14:38.506Z,70.49
2023-03-05T14:17:34.728Z,70.23
2023-03-05T14:20:27.492Z,70.02
2023-03-05T14:22:59.679Z,70.02
2023-03-05T14:25:40.002Z,69.77
2023-03-05T14:28:17.307Z,69.28
2023-03-05T14:30:47.699Z,69.12
2023-03-05T14:33:23.523Z,69.13
2023-03-05T14:35:52.534Z,69.20
2023-03-05T14:38:24.983Z,69.07
2023-03-05T14:40:53.418Z,69.26
2023-03-05T14:43:21.882Z,69.36
2023-03-05T14:45:50.087Z,69.34
2023-03-05T14:48:19.354Z,69.63
2023-03-05T14:50:56.346Z,69.44
2023-03-05T14:53:28.894Z,68.78
2023-03-05T14:55:57.192Z,69.50
2023-03-05T14:58:29.973Z,69.60
2023-03-05T15:00:59.270Z,69.64
2023-03-05T15:03:28.200Z,69.47
2023-03-05T15:05:57.661Z,69.65
2023-03-05T15:08:28.406Z,69.84
2023-03-05T15:10:57.483Z,70.18
2023-03-05T15:13:26.475Z,70.22
2023-03-05T15:15:55.232Z,70.31
2023-03-05T15:18:24.049Z,70.45
2023-03-05T15:20:53.272Z,70.15
2023-03-05T15:23:21.625Z,70.20
2023-03-05T15:25:50.313Z,70.18
2023-03-05T15:28:19.005Z,70.29
2023-03-05T15:30:47.739Z,70.74
2023-03-05T15:33:17.488Z,70.89
2023-03-05T15:35:45.795Z,71.22
2023-03-05T15:38:15.462Z,71.85
2023-03-05T15:40:44.455Z,72.29
2023-03-05T15:43:13.037Z,72.52
2023-03-05T15:45:41.413Z,72.64
2023-03-05T15:48:09.800Z,72.87
2023-03-05T15:50:43.033Z,73.12
2023-03-05T15:53:13.501Z,73.42
2023-03-05T15:55:43.833Z,73.59
2023-03-05T15:58:17.438Z,74.05
2023-03-05T16:00:47.629Z,74.47
2023-03-05T16:03:16.176Z,74.88
2023-03-05T16:05:44.611Z,75.13
2023-03-05T16:08:13.088Z,75.31
2023-03-05T16:10:41.381Z,75.32
2023-03-05T16:13:12.716Z,75.81
2023-03-05T16:15:41.606Z,75.85
2023-03-05T16:18:12.953Z,75.86
2023-03-05T16:20:41.330Z,76.06
2023-03-05T16:23:09.602Z,76.32
2023-03-05T16:25:38.292Z,76.45
2023-03-05T16:28:06.878Z,76.61
2023-03-05T16:30:35.453Z,76.91
2023-03-05T16:33:03.833Z,77.05
2023-03-05T16:35:32.957Z,77.08
2023-03-05T16:38:01.717Z,77.35
2023-03-05T16:40:51.381Z,77.38
2023-03-05T16:43:18.550Z,77.83
2023-03-05T16:45:46.708Z,77.94
2023-03-05T16:48:14.777Z,78.06
2023-03-05T16:50:42.952Z,78.15
2023-03-05T16:53:11.122Z,78.26
2023-03-05T16:55:39.601Z,78.28
2023-03-05T16:58:08.083Z,78.31
2023-03-05T17:00:36.307Z,78.23
2023-03-05T17:03:04.533Z,78.50
2023-03-05T17:05:36.189Z,78.69
2023-03-05T17:08:05.170Z,78.72
2023-03-05T17:10:33.864Z,78.92
2023-03-05T17:13:02.063Z,79.16
2023-03-05T17:15:30.409Z,79.10
2023-03-05T17:17:58.678Z,79.38
2023-03-05T17:20:27.778Z,79.40
2023-03-05T17:22:55.943Z,79.59
2023-03-05T17:25:24.115Z,79.57
2023-03-05T17:27:52.523Z,79.76
2023-03-05T17:30:20.877Z,79.86
2023-03-05T17:32:52.625Z,79.93
2023-03-05T17:35:22.171Z,79.71
2023-03-05T17:37:51.738Z,79.90
2023-03-05T17:40:20.118Z,80.01
2023-03-05T17:42:48.187Z,80.19
2023-03-05T17:45:17.072Z,80.44
2023-03-05T17:47:45.244Z,80.49
2023-03-05T17:50:14.644Z,80.72
2023-03-05T17:52:42.817Z,80.60
2023-03-05T17:55:12.829Z,80.62
2023-03-05T17:57:42.655Z,80.98
2023-03-05T18:00:16.442Z,80.98
2023-03-05T18:02:45.037Z,80.71
2023-03-05T18:05:14.123Z,80.72
2023-03-05T18:07:42.501Z,80.81
2023-03-05T18:10:11.799Z,81.01
2023-03-05T18:12:40.488Z,80.96
2023-03-05T18:15:10.956Z,80.97
2023-03-05T18:17:39.701Z,81.26
2023-03-05T18:20:10.099Z,81.25
2023-03-05T18:22:38.194Z,81.26
2023-03-05T18:25:06.977Z,81.50
2023-03-05T18:27:35.457Z,81.45
2023-03-05T18:30:04.124Z,81.54
2023-03-05T18:32:32.237Z,81.34
2023-03-05T18:35:00.378Z,81.55
2023-03-05T18:37:28.557Z,81.43
2023-03-05T18:39:58.186Z,81.24
2023-03-05T18:42:26.434Z,81.33
2023-03-05T18:44:56.549Z,81.30
2023-03-05T18:47:24.731Z,81.27
2023-03-05T18:49:53.407Z,81.26
2023-03-05T18:52:21.576Z,81.35
2023-03-05T18:54:49.752Z,81.29
2023-03-05T18:57:17.925Z,81.20
2023-03-05T18:59:46.094Z,81.10
2023-03-05T19:02:15.597Z,81.28
2023-03-05T19:04:43.879Z,81.46
2023-03-05T19:07:12.179Z,81.30
2023-03-05T19:10:02.453Z,81.38
2023-03-05T19:12:35.375Z,81.23
2023-03-05T19:15:05.693Z,81.35
2023-03-05T19:17:34.128Z,81.19
2023-03-05T19:20:06.600Z,81.06
2023-03-05T19:22:34.885Z,81.02
2023-03-05T19:25:03.881Z,80.91
2023-03-05T19:27:32.036Z,80.89
2023-03-05T19:30:00.618Z,80.84
2023-03-05T19:32:29.343Z,80.97
2023-03-05T19:34:58.415Z,80.96
2023-03-05T19:37:27.387Z,81.15
2023-03-05T19:39:55.766Z,81.13
2023-03-05T19:42:23.934Z,81.14
2023-03-05T19:44:52.112Z,81.50
2023-03-05T19:47:20.482Z,81.40
2023-03-05T19:49:48.657Z,81.50
2023-03-05T19:52:16.930Z,81.46
2023-03-05T19:54:45.106Z,81.53
2023-03-05T19:57:13.274Z,81.64
2023-03-05T19:59:41.649Z,81.78
2023-03-05T20:02:12.176Z,82.06
2023-03-05T20:04:40.347Z,82.18
2023-03-05T20:07:10.569Z,82.38
2023-03-05T20:09:38.761Z,82.58
2023-03-05T20:12:08.043Z,82.66
2023-03-05T20:14:36.537Z,82.82
2023-03-05T20:17:04.753Z,82.98
2023-03-05T20:19:32.974Z,82.89
2023-03-05T20:22:01.141Z,83.07
2023-03-05T20:24:29.314Z,83.11
2023-03-05T20:26:57.600Z,83.15
2023-03-05T20:29:25.686Z,83.36
2023-03-05T20:31:56.489Z,83.32
2023-03-05T20:34:25.278Z,83.33
2023-03-05T20:36:53.456Z,83.47
2023-03-05T20:39:21.727Z,83.40
2023-03-05T20:41:51.444Z,83.40
2023-03-05T20:44:19.608Z,83.60
2023-03-05T20:47:02.815Z,83.84
2023-03-05T20:49:31.109Z,83.82
2023-03-05T20:51:59.187Z,83.86
2023-03-05T20:54:28.312Z,83.81
2023-03-05T20:56:56.548Z,83.85
2023-03-05T20:59:24.921Z,83.97
2023-03-05T21:01:53.111Z,84.10
2023-03-05T21:04:21.372Z,84.28
2023-03-05T21:06:52.806Z,84.22
2023-03-05T21:09:20.997Z,84.25
2023-03-05T21:11:49.166Z,84.30
2023-03-05T21:14:17.656Z,84.33
2023-03-05T21:16:45.867Z,84.25
2023-03-05T21:19:14.198Z,84.19
2023-03-05T21:21:45.772Z,84.33
2023-03-05T21:24:14.226Z,84.32
2023-03-05T21:26:42.397Z,84.35
2023-03-05T21:29:10.568Z,84.51
2023-03-05T21:31:38.679Z,84.70
2023-03-05T21:34:07.016Z,84.67
2023-03-05T21:36:35.392Z,84.65
2023-03-05T21:39:03.568Z,84.60
2023-03-05T21:41:31.738Z,84.63
2023-03-05T21:44:04.166Z,84.81
2023-03-05T21:46:32.489Z,84.81
2023-03-05T21:49:00.660Z,84.58
2023-03-05T21:51:38.671Z,84.45
2023-03-05T21:54:07.344Z,84.49
2023-03-05T21:56:35.830Z,84.21
2023-03-05T21:59:04.093Z,84.20
2023-03-05T22:01:32.333Z,84.01
2023-03-05T22:04:00.684Z,83.79
2023-03-05T22:06:28.921Z,83.85
2023-03-05T22:08:57.092Z,83.66
2023-03-05T22:11:25.362Z,83.78
2023-03-05T22:13:53.430Z,83.68
2023-03-05T22:16:26.227Z,83.69
2023-03-05T22:18:54.911Z,83.69
2023-03-05T22:21:26.624Z,84.06
2023-03-05T22:23:57.368Z,84.30
2023-03-05T22:26:26.208Z,84.23
2023-03-05T22:28:54.341Z,84.28
2023-03-05T22:31:24.047Z,84.03
2023-03-05T22:33:53.255Z,84.19
2023-03-05T22:36:21.620Z,84.26
2023-03-05T22:38:49.806Z,84.29
2023-03-05T22:41:20.007Z,84.24
2023-03-05T22:43:49.619Z,84.42
2023-03-05T22:46:21.035Z,84.38
2023-03-05T22:48:49.547Z,84.29
2023-03-05T22:51:18.820Z,84.31
2023-03-05T22:53:47.427Z,84.41
2023-03-05T22:56:18.154Z,84.44
2023-03-05T22:58:46.451Z,84.32
2023-03-05T23:01:16.534Z,84.65
2023-03-05T23:03:44.843Z,84.53
2023-03-05T23:06:13.218Z,84.75
2023-03-05T23:08:41.395Z,84.98
2023-03-05T23:11:11.704Z,84.98
2023-03-05T23:13:40.904Z,85.00
2023-03-05T23:16:10.005Z,84.88
2023-03-05T23:18:38.379Z,85.04
2023-03-05T23:21:06.769Z,84.96
2023-03-05T23:23:34.928Z,84.94
2023-03-05T23:26:03.220Z,84.86
2023-03-05T23:28:31.373Z,85.11
2023-03-05T23:30:59.565Z,85.25
2023-03-05T23:33:27.725Z,85.22
2023-03-05T23:35:58.212Z,85.50
2023-03-05T23:38:28.565Z,85.80
2023-03-05T23:41:00.697Z,85.66
2023-03-05T23:43:30.028Z,85.88
2023-03-05T23:45:58.466Z,86.02
2023-03-05T23:48:27.660Z,86.12
2023-03-05T23:50:56.384Z,86.06
2023-03-05T23:53:27.737Z,86.44
2023-03-05T23:55:56.218Z,86.48
2023-03-05T23:58:24.403Z,86.50
